Time;durP1;ratioP1;P1;durP2;ratioP2;P2;SDS_P1;SDS_P2;PMS_P1;PMS_P2;Temp;Humidity;BMP_temperature;BMP_pressure;BME280_temperature;BME280_humidity;BME280_pressure;Samples;Min_cycle;Max_cycle;Signal;HPM_P1;HPM_P2
2022/02/16 00:01:11;;;;;;;11.40;9.45;;;;;;;0.47;72.92;100760.52;1729142;81;20994;-64
2022/02/16 00:03:39;;;;;;;17.57;10.65;;;;;;;0.49;72.83;100758.63;1731102;81;21465;-64
2022/02/16 00:06:05;;;;;;;13.47;10.63;;;;;;;0.43;73.00;100753.35;1726616;81;20998;-63
2022/02/16 00:08:31;;;;;;;17.50;13.55;;;;;;;0.42;73.19;100754.80;1720596;81;21121;-64
2022/02/16 00:10:57;;;;;;;16.35;12.47;;;;;;;0.35;73.45;100754.41;1739003;81;21526;-65
2022/02/16 00:13:23;;;;;;;17.67;11.20;;;;;;;0.32;73.57;100750.23;1691777;82;21012;-64
2022/02/16 00:15:49;;;;;;;18.20;11.30;;;;;;;0.27;73.93;100747.58;1695193;83;21514;-64
2022/02/16 00:18:16;;;;;;;22.82;12.18;;;;;;;0.27;73.79;100744.95;1694551;83;21027;-65
2022/02/16 00:20:42;;;;;;;17.62;12.23;;;;;;;0.22;74.07;100743.13;1698374;83;21644;-65
2022/02/16 00:23:08;;;;;;;13.93;11.22;;;;;;;0.23;73.97;100736.92;1705597;83;21550;-64
2022/02/16 00:25:35;;;;;;;18.60;12.13;;;;;;;0.19;74.18;100735.03;1705461;82;21081;-64
2022/02/16 00:28:01;;;;;;;19.32;11.35;;;;;;;0.19;74.22;100726.68;1723052;82;21522;-64
2022/02/16 00:30:27;;;;;;;;;;;;;;;0.18;74.42;100732.03;1716210;82;21092;-65
2022/02/16 00:32:53;;;;;;;16.33;12.40;;;;;;;0.12;74.61;100725.93;1716800;82;20143;-64
2022/02/16 00:35:19;;;;;;;18.60;13.08;;;;;;;0.08;74.80;100726.62;1709004;82;21087;-65
2022/02/16 00:37:45;;;;;;;22.42;14.83;;;;;;;0.02;75.02;100720.52;1706638;82;21475;-64
2022/02/16 00:40:12;;;;;;;22.15;15.20;;;;;;;0.03;74.92;100724.80;1717251;82;21499;-64
2022/02/16 00:42:41;;;;;;;16.50;12.83;;;;;;;0.00;75.16;100730.28;1710706;82;21074;-64
2022/02/16 00:45:08;;;;;;;23.20;14.33;;;;;;;-0.03;75.27;100732.63;1697989;82;21030;-64
2022/02/16 00:47:36;;;;;;;23.50;16.53;;;;;;;-0.02;75.31;100724.28;1711096;82;21479;-64
2022/02/16 00:50:04;;;;;;;22.00;16.75;;;;;;;-0.03;75.36;100721.32;1710983;82;20975;-64
2022/02/16 00:52:32;;;;;;;21.40;16.27;;;;;;;-0.02;75.25;100722.98;1702807;82;21062;-63
2022/02/16 00:54:58;;;;;;;23.75;16.67;;;;;;;-0.04;75.42;100716.56;1668697;84;21039;-66
2022/02/16 00:57:26;;;;;;;18.93;15.10;;;;;;;-0.03;75.27;100710.84;1711651;82;21010;-65
2022/02/16 00:59:52;;;;;;;24.27;18.00;;;;;;;-0.02;75.24;100715.11;1723826;82;20999;-65
2022/02/16 01:02:18;;;;;;;21.87;17.80;;;;;;;-0.03;75.25;100706.42;1714933;82;21467;-64
2022/02/16 01:04:44;;;;;;;25.10;17.02;;;;;;;-0.04;75.33;100707.39;1711320;82;21042;-64
2022/02/16 01:07:10;;;;;;;26.40;16.77;;;;;;;-0.43;75.42;100652.97;1712014;82;21030;-65
2022/02/16 01:09:38;;;;;;;25.37;17.00;;;;;;;-0.42;75.41;100652.48;1701983;82;21033;-64
2022/02/16 01:12:05;;;;;;;20.45;15.58;;;;;;;-0.13;75.71;100717.22;1710541;82;21018;-64
2022/02/16 01:14:34;;;;;;;23.33;15.77;;;;;;;-0.15;75.76;100716.95;1711159;82;21027;-63
2022/02/16 01:17:17;;;;;;;21.47;15.97;;;;;;;-0.18;76.03;100708.02;1709485;82;21507;-66
2022/02/16 01:19:54;;;;;;;22.23;16.50;;;;;;;-0.21;76.16;100705.98;1718566;82;21096;-64
2022/02/16 01:22:20;;;;;;;26.23;17.55;;;;;;;-0.24;76.34;100694.87;1681673;82;21078;-64
2022/02/16 01:24:47;;;;;;;22.32;16.60;;;;;;;-0.24;76.33;100697.50;1702329;82;21085;-65
2022/02/16 01:27:16;;;;;;;24.10;17.93;;;;;;;-0.32;76.56;100691.50;1704877;82;21114;-65
2022/02/16 01:29:43;;;;;;;21.35;16.10;;;;;;;-0.31;76.56;100693.64;1710911;82;21085;-64
2022/02/16 01:32:11;;;;;;;23.60;16.63;;;;;;;-0.34;76.86;100687.30;1707689;82;21101;-64
2022/02/16 01:34:38;;;;;;;;;;;;;;;-0.37;76.99;100694.08;1673874;84;20998;-64
2022/02/16 01:37:05;;;;;;;24.97;17.00;;;;;;;-0.34;76.75;100684.22;1658877;84;20188;-64
2022/02/16 01:39:33;;;;;;;28.97;18.67;;;;;;;-0.41;77.17;100675.95;1709646;82;21078;-65
2022/02/16 01:42:02;;;;;;;24.13;15.67;;;;;;;-0.38;77.07;100678.81;1706182;82;21182;-64
2022/02/16 01:44:30;;;;;;;23.00;17.00;;;;;;;-0.37;77.21;100679.67;1721803;82;21067;-65
2022/02/16 01:47:05;;;;;;;25.87;19.10;;;;;;;-0.37;77.24;100680.50;1671307;84;21006;-65
2022/02/16 01:49:35;;;;;;;26.70;18.03;;;;;;;-0.34;77.17;100670.27;1697329;82;20987;-65
2022/02/16 01:52:03;;;;;;;24.03;16.83;;;;;;;-0.31;77.05;100670.89;1707558;82;20986;-64
2022/02/16 01:54:31;;;;;;;24.03;17.50;;;;;;;-0.34;77.27;100662.41;1703799;82;22473;-64
2022/02/16 01:56:59;;;;;;;22.30;17.63;;;;;;;-0.32;77.30;100660.52;1709312;82;21017;-64
2022/02/16 01:59:27;;;;;;;26.77;18.30;;;;;;;-0.33;77.25;100658.86;1711548;82;21040;-64
2022/02/16 02:01:55;;;;;;;26.87;18.30;;;;;;;-0.35;77.32;100662.89;1706558;82;21082;-63
2022/02/16 02:04:21;;;;;;;26.37;17.80;;;;;;;-0.38;77.40;100660.48;1702689;82;21026;-63
2022/02/16 02:06:48;;;;;;;33.07;19.80;;;;;;;-0.38;77.51;100661.80;1711273;82;21607;-63
2022/02/16 02:09:16;;;;;;;23.45;17.75;;;;;;;-0.37;77.44;100658.72;1703985;82;21585;-64
2022/02/16 02:11:43;;;;;;;25.07;18.37;;;;;;;-0.35;77.45;100653.73;1705611;82;21462;-63
2022/02/16 02:14:12;;;;;;;33.13;21.43;;;;;;;-0.37;77.49;100656.11;1691667;82;21057;-63
2022/02/16 02:16:57;;;;;;;27.47;19.10;;;;;;;-0.38;77.44;100657.86;1693589;82;21595;-64
2022/02/16 02:19:24;;;;;;;29.00;19.40;;;;;;;-0.36;77.44;100662.52;1700941;82;22102;-64
2022/02/16 02:21:52;;;;;;;23.30;17.40;;;;;;;-0.38;77.53;100655.73;1707445;82;21011;-64
2022/02/16 02:24:18;;;;;;;27.17;18.02;;;;;;;-0.33;77.49;100656.24;1701022;82;20998;-64
2022/02/16 02:26:44;;;;;;;23.30;15.95;;;;;;;-0.24;77.30;100659.03;1705113;83;21055;-64
2022/02/16 02:29:10;;;;;;;26.52;17.45;;;;;;;-0.19;77.13;100654.75;1707866;83;21121;-63
2022/02/16 02:31:38;;;;;;;23.17;16.43;;;;;;;-0.14;77.01;100650.50;1709778;82;21023;-64
2022/02/16 02:34:06;;;;;;;22.77;15.40;;;;;;;-0.06;77.04;100646.84;1699398;82;21083;-65
2022/02/16 02:36:33;;;;;;;23.17;16.50;;;;;;;0.00;76.77;100638.55;1705774;83;21013;-64
2022/02/16 02:39:00;;;;;;;26.27;16.70;;;;;;;0.06;76.34;100636.78;1705362;82;21022;-65
2022/02/16 02:41:26;;;;;;;25.12;16.37;;;;;;;0.05;76.40;100636.89;1710628;82;21019;-64
2022/02/16 02:43:53;;;;;;;32.58;17.60;;;;;;;0.05;76.27;100633.78;1698391;82;21579;-65
2022/02/16 02:46:20;;;;;;;27.87;17.05;;;;;;;0.06;76.28;100634.61;1746801;81;21546;-63
2022/02/16 02:48:51;;;;;;;30.80;20.07;;;;;;;0.09;76.25;100635.23;1729940;81;21036;-65
2022/02/16 02:51:19;;;;;;;27.63;18.57;;;;;;;0.14;76.14;100645.39;1733581;81;21038;-64
2022/02/16 02:53:46;;;;;;;32.93;19.37;;;;;;;0.16;76.04;100644.80;1732861;81;21116;-64
2022/02/16 02:56:12;;;;;;;22.00;16.52;;;;;;;0.19;75.79;100649.34;1725486;81;20971;-65
2022/02/16 02:58:40;;;;;;;28.23;18.07;;;;;;;0.18;75.69;100647.66;1717117;82;21094;-64
2022/02/16 03:01:08;;;;;;;29.00;18.37;;;;;;;0.13;75.83;100636.70;1718989;81;20995;-63
2022/02/16 03:03:36;;;;;;;28.57;17.27;;;;;;;0.07;76.14;100647.61;1737520;81;20978;-65
2022/02/16 03:06:09;;;;;;;28.00;18.07;;;;;;;-0.08;76.79;100650.87;1735434;81;20999;-64
2022/02/16 03:08:38;;;;;;;27.73;18.13;;;;;;;-0.10;77.03;100650.64;1739768;81;21070;-64
2022/02/16 03:11:05;;;;;;;29.67;17.73;;;;;;;-0.16;77.19;100644.55;1745829;81;21495;-64
2022/02/16 03:13:32;;;;;;;27.97;18.53;;;;;;;-0.17;77.48;100642.86;1709321;82;21081;-65
2022/02/16 03:16:12;;;;;;;24.53;17.53;;;;;;;-0.16;77.61;100644.55;1722463;82;21023;-65
2022/02/16 03:18:40;;;;;;;30.07;18.53;;;;;;;-0.16;77.60;100647.16;1711089;82;21042;-65
2022/02/16 03:21:07;;;;;;;27.05;17.35;;;;;;;-0.15;77.74;100643.13;1711643;82;21014;-64
2022/02/16 03:23:34;;;;;;;28.10;17.87;;;;;;;-0.14;77.75;100640.85;1728331;81;21686;-65
2022/02/16 03:26:01;;;;;;;24.57;17.50;;;;;;;-0.10;77.86;100645.40;1756744;80;22275;-64
2022/02/16 03:28:29;;;;;;;30.27;17.87;;;;;;;-0.09;77.89;100630.05;1736192;81;21035;-64
2022/02/16 03:31:00;;;;;;;25.53;17.70;;;;;;;-0.05;77.73;100631.02;1751912;81;21033;-65
2022/02/16 03:33:26;;;;;;;23.18;16.73;;;;;;;-0.03;77.84;100632.22;1709149;81;21035;-64
2022/02/16 03:35:52;;;;;;;;;;;;;;;-0.07;78.23;100625.53;1734807;81;21521;-65
2022/02/16 03:38:18;;;;;;;27.07;17.53;;;;;;;-0.07;78.37;100626.84;1729438;81;20112;-65
2022/02/16 03:40:45;;;;;;;23.47;15.53;;;;;;;-0.09;78.65;100628.26;1743925;81;21034;-64
2022/02/16 03:43:12;;;;;;;29.23;17.37;;;;;;;-0.08;78.69;100621.23;1756895;81;21922;-65
2022/02/16 03:45:38;;;;;;;25.70;17.98;;;;;;;-0.04;78.70;100617.42;1733509;81;21148;-64
2022/02/16 03:48:05;;;;;;;24.07;17.00;;;;;;;-0.02;78.79;100612.91;1726330;81;21020;-64
2022/02/16 03:50:32;;;;;;;;;;;;;;;-0.01;79.43;100620.66;1748387;81;21058;-64
2022/02/16 03:53:02;;;;;;;23.63;15.97;;;;;;;0.07;79.47;100618.78;1737217;81;20179;-64
2022/02/16 03:55:30;;;;;;;20.77;14.37;;;;;;;0.11;79.50;100619.39;1740230;81;21006;-65
2022/02/16 03:57:57;;;;;;;18.15;12.85;;;;;;;0.17;79.71;100615.00;1735464;81;21017;-65
2022/02/16 04:00:25;;;;;;;19.00;12.13;;;;;;;0.27;79.65;100609.44;1735547;81;21014;-66
2022/02/16 04:02:52;;;;;;;15.33;12.43;;;;;;;0.32;80.14;100611.25;1743319;81;21066;-66
2022/02/16 04:05:19;;;;;;;19.02;11.30;;;;;;;0.38;80.04;100606.02;1739555;81;21081;-66
2022/02/16 04:07:45;;;;;;;19.80;11.83;;;;;;;0.45;79.93;100608.52;1730997;81;20982;-64
2022/02/16 04:10:12;;;;;;;;;;;;;;;0.48;80.02;100606.98;1743860;81;21534;-64
2022/02/16 04:12:40;;;;;;;;;;;;;;;0.55;79.88;100594.25;1740300;81;20155;-64
2022/02/16 04:15:08;;;;;;;16.50;12.57;;;;;;;0.60;79.79;100600.44;1741169;81;20405;-65
2022/02/16 04:17:36;;;;;;;20.87;13.37;;;;;;;0.56;79.79;100596.73;1751914;81;20995;-65
2022/02/16 04:20:06;;;;;;;22.83;13.63;;;;;;;0.53;80.04;100595.67;1745443;80;21042;-65
2022/02/16 04:22:43;;;;;;;22.87;14.57;;;;;;;0.55;79.99;100593.77;1740136;81;21061;-65
2022/02/16 04:25:10;;;;;;;19.90;13.73;;;;;;;0.59;80.00;100602.23;1737109;81;22257;-64
2022/02/16 04:27:38;;;;;;;20.87;14.93;;;;;;;0.61;79.90;100596.39;1732755;81;21502;-65
2022/02/16 04:30:06;;;;;;;16.62;12.28;;;;;;;0.68;79.80;100583.63;1726536;81;22126;-64
2022/02/16 04:32:35;;;;;;;15.40;13.23;;;;;;;0.75;79.78;100587.45;1739185;81;20982;-65
2022/02/16 04:35:04;;;;;;;17.27;14.57;;;;;;;0.76;79.78;100582.58;1738808;81;21014;-65
2022/02/16 04:37:30;;;;;;;19.40;14.30;;;;;;;0.76;79.81;100576.02;1724896;81;21010;-66
2022/02/16 04:39:57;;;;;;;21.77;13.50;;;;;;;0.80;79.95;100576.61;1704513;81;21651;-65
2022/02/16 04:42:24;;;;;;;;;;;;;;;0.90;79.69;100574.44;1754403;81;21563;-65
2022/02/16 04:44:50;;;;;;;20.88;13.45;;;;;;;0.65;79.43;100520.43;1750971;80;20272;-64
2022/02/16 04:47:17;;;;;;;;;;;;;;;0.96;79.62;100577.06;1733990;81;21783;-64
2022/02/16 04:49:43;;;;;;;23.00;14.23;;;;;;;0.92;79.76;100580.44;1738744;80;20608;-64
2022/02/16 04:52:09;;;;;;;27.70;15.50;;;;;;;0.87;79.99;100576.50;1723567;81;21608;-64
2022/02/16 04:54:36;;;;;;;27.85;18.10;;;;;;;0.93;79.85;100579.95;1731965;81;21003;-65
2022/02/16 04:58:34;;;;;;;29.80;18.07;;;;;;;1.09;79.68;100575.17;1801434;78;22204;-67
2022/02/16 05:01:01;;;;;;;23.97;16.97;;;;;;;1.13;79.44;100575.73;1754082;80;21022;-65
2022/02/16 05:03:30;;;;;;;27.27;16.47;;;;;;;1.15;79.22;100577.30;1741910;81;21172;-66
2022/02/16 05:05:55;;;;;;;27.55;17.40;;;;;;;1.15;79.03;100577.30;1730101;81;20974;-65
2022/02/16 05:08:22;;;;;;;29.40;18.12;;;;;;;1.14;78.95;100576.11;1727812;81;21553;-66
2022/02/16 05:10:48;;;;;;;27.93;17.90;;;;;;;1.12;79.02;100580.16;1726936;81;21002;-64
2022/02/16 05:13:26;;;;;;;24.63;16.90;;;;;;;1.14;78.95;100588.75;1716116;81;21014;-65
2022/02/16 05:15:52;;;;;;;22.58;17.25;;;;;;;1.15;79.14;100593.06;1715939;81;21027;-65
2022/02/16 05:18:20;;;;;;;28.93;18.80;;;;;;;1.18;79.18;100591.14;1731825;81;21069;-66
2022/02/16 05:20:54;;;;;;;21.03;15.93;;;;;;;1.19;79.06;100598.91;1731026;81;21094;-66
2022/02/16 05:23:22;;;;;;;23.20;17.20;;;;;;;1.16;78.82;100588.14;1747384;80;21443;-65
2022/02/16 05:25:50;;;;;;;22.27;16.23;;;;;;;1.29;78.51;100599.00;1740974;81;22038;-66
2022/02/16 05:28:16;;;;;;;26.23;17.90;;;;;;;1.32;78.32;100600.91;1730218;81;21054;-66
2022/02/16 05:30:43;;;;;;;21.63;17.50;;;;;;;1.31;78.06;100600.55;1726867;81;21552;-63
2022/02/16 05:33:10;;;;;;;26.05;17.32;;;;;;;1.20;78.38;100600.56;1733532;80;21031;-65
2022/02/16 05:35:37;;;;;;;22.97;16.73;;;;;;;1.10;78.68;100608.81;1748388;81;21523;-77
2022/02/16 05:38:03;;;;;;;;;;;;;;;1.12;78.81;100609.53;1717407;81;21017;-73
2022/02/16 05:40:31;;;;;;;;;;;;;;;1.15;78.97;100609.30;1740164;80;20536;-72
2022/02/16 05:42:58;;;;;;;21.23;14.33;;;;;;;1.16;78.86;100609.64;1741642;80;20174;-72
2022/02/16 05:45:25;;;;;;;23.23;14.63;;;;;;;1.23;79.00;100610.00;1739634;80;21052;-73
2022/02/16 05:47:53;;;;;;;21.73;16.07;;;;;;;1.32;78.81;100615.36;1735486;81;20974;-75
2022/02/16 05:50:19;;;;;;;21.85;16.20;;;;;;;1.36;78.81;100615.47;1740231;81;21013;-67
2022/02/16 05:52:45;;;;;;;;;;;;;;;1.40;78.65;100606.86;1722149;81;21060;-77
2022/02/16 05:55:12;;;;;;;25.30;16.97;;;;;;;1.43;78.57;100608.40;1739677;79;20183;-75
2022/02/16 05:57:38;;;;;;;;;;;;;;;1.44;78.49;100599.58;1740058;81;21114;-77
2022/02/16 06:00:07;;;;;;;22.30;14.40;;;;;;;1.50;78.33;100597.77;1704408;82;20097;-75
2022/02/16 06:02:41;;;;;;;27.90;14.50;;;;;;;1.47;78.14;100589.66;1697845;82;21068;-76
2022/02/16 06:05:11;;;;;;;19.90;13.40;;;;;;;1.49;78.19;100592.17;1691441;82;21470;-67
2022/02/16 06:07:39;;;;;;;22.03;15.20;;;;;;;1.45;78.73;100589.41;1718655;82;21042;-64
2022/02/16 06:10:08;;;;;;;22.07;14.70;;;;;;;1.45;78.78;100587.64;1721139;81;21573;-64
2022/02/16 06:12:39;;;;;;;18.87;14.27;;;;;;;1.41;79.01;100578.31;1660745;84;21059;-64
2022/02/16 06:15:08;;;;;;;22.17;13.33;;;;;;;1.43;79.13;100580.82;1667714;84;21020;-64
2022/02/16 06:17:35;;;;;;;20.30;14.97;;;;;;;1.47;79.30;100586.17;1650118;85;21034;-64
2022/02/16 06:20:03;;;;;;;;;;;;;;;1.53;79.06;100584.39;1651141;86;21002;-63
2022/02/16 06:22:29;;;;;;;22.30;13.83;;;;;;;1.62;78.97;100590.67;1659867;84;20437;-64
2022/02/16 06:24:56;;;;;;;21.27;14.15;;;;;;;1.58;78.92;100583.52;1671078;85;21002;-63
2022/02/16 06:27:23;;;;;;;35.33;14.37;;;;;;;1.58;78.97;100578.75;1673393;84;21010;-62
2022/02/16 06:29:49;;;;;;;20.97;14.78;;;;;;;1.54;79.20;100572.45;1645852;86;21105;-64
2022/02/16 06:32:21;;;;;;;19.10;12.80;;;;;;;1.52;79.57;100566.95;1666672;85;21118;-65
2022/02/16 06:34:48;;;;;;;21.03;13.83;;;;;;;1.55;79.90;100560.97;1691161;83;21496;-63
2022/02/16 06:37:14;;;;;;;22.22;13.53;;;;;;;1.64;79.72;100558.08;1691874;83;21023;-64
2022/02/16 06:39:42;;;;;;;18.13;12.63;;;;;;;1.77;79.44;100556.58;1683918;83;21026;-64
2022/02/16 06:42:09;;;;;;;19.15;15.10;;;;;;;1.84;79.31;100556.43;1695251;83;21042;-64
2022/02/16 06:44:35;;;;;;;23.25;15.83;;;;;;;1.86;79.16;100552.36;1682257;85;21057;-63
2022/02/16 06:47:02;;;;;;;26.48;16.97;;;;;;;1.82;79.08;100550.95;1668622;84;21046;-64
2022/02/16 06:49:28;;;;;;;19.95;13.93;;;;;;;1.81;79.20;100555.84;1674471;84;21057;-65
2022/02/16 06:51:56;;;;;;;22.50;13.77;;;;;;;1.80;79.12;100554.20;1669533;84;21125;-65
2022/02/16 06:54:22;;;;;;;23.10;16.23;;;;;;;1.86;79.13;100557.62;1695618;83;21095;-65
2022/02/16 06:56:48;;;;;;;25.92;18.37;;;;;;;1.89;78.95;100554.27;1695617;83;21069;-64
2022/02/16 06:59:21;;;;;;;27.33;18.23;;;;;;;1.87;79.07;100554.88;1667736;84;21031;-66
2022/02/16 07:01:50;;;;;;;23.37;16.77;;;;;;;1.80;79.21;100558.14;1694393;83;21661;-65
2022/02/16 07:04:17;;;;;;;19.23;13.70;;;;;;;1.80;79.58;100558.14;1703599;83;21072;-65
2022/02/16 07:06:44;;;;;;;19.80;13.33;;;;;;;1.75;79.73;100550.16;1704302;83;21037;-65
2022/02/16 07:09:14;;;;;;;20.27;13.10;;;;;;;1.71;79.94;100556.63;1705759;83;21054;-66
2022/02/16 07:11:40;;;;;;;17.27;11.68;;;;;;;1.69;80.17;100553.27;1704262;83;21624;-70
2022/02/16 07:14:07;;;;;;;16.85;10.32;;;;;;;1.71;80.05;100540.86;1701682;84;21053;-64
2022/02/16 07:16:33;;;;;;;15.55;11.83;;;;;;;1.73;80.11;100538.94;1705384;83;21144;-65
2022/02/16 07:19:00;;;;;;;18.43;11.23;;;;;;;1.75;80.09;100537.02;1705758;84;21291;-69
2022/02/16 07:21:28;;;;;;;20.17;13.50;;;;;;;1.66;80.43;100532.51;1705626;83;21089;-71
2022/02/16 07:23:56;;;;;;;18.10;13.17;;;;;;;1.61;80.82;100538.61;1704794;83;21021;-64
2022/02/16 07:26:23;;;;;;;17.03;12.47;;;;;;;1.59;81.18;100534.45;1703135;84;20998;-73
2022/02/16 07:28:51;;;;;;;17.33;13.20;;;;;;;1.60;81.36;100537.42;1661119;84;21203;-65
2022/02/16 07:31:18;;;;;;;19.00;13.53;;;;;;;1.64;81.39;100537.06;1656512;85;21034;-66
2022/02/16 07:33:44;;;;;;;20.20;12.05;;;;;;;1.71;81.35;100526.41;1665719;85;21055;-66
2022/02/16 07:36:11;;;;;;;19.15;13.10;;;;;;;1.80;81.28;100527.91;1689993;83;21128;-65
2022/02/16 07:38:38;;;;;;;17.57;13.00;;;;;;;1.72;80.97;100514.92;1669827;84;21067;-65
2022/02/16 07:41:06;;;;;;;15.13;12.47;;;;;;;1.66;80.99;100512.80;1677824;84;21037;-65
2022/02/16 07:43:34;;;;;;;17.97;11.93;;;;;;;1.64;81.35;100513.41;1656417;85;21141;-68
2022/02/16 07:46:05;;;;;;;18.90;12.10;;;;;;;1.58;81.92;100519.15;1678588;83;20963;-66
2022/02/16 07:48:34;;;;;;;18.00;13.87;;;;;;;1.57;82.16;100518.81;1689659;83;21026;-63
2022/02/16 07:51:02;;;;;;;21.57;13.57;;;;;;;1.58;82.23;100517.84;1675772;83;21279;-65
2022/02/16 07:53:38;;;;;;;21.83;14.47;;;;;;;1.59;82.42;100511.63;1684513;83;21492;-64
2022/02/16 07:56:06;;;;;;;19.63;14.30;;;;;;;1.61;82.26;100520.71;1669840;85;21085;-67
2022/02/16 07:58:34;;;;;;;22.33;14.60;;;;;;;1.56;82.73;100510.56;1657043;85;21057;-66
2022/02/16 08:01:01;;;;;;;19.53;12.93;;;;;;;1.58;82.74;100515.20;1658775;85;21047;-65
2022/02/16 08:03:28;;;;;;;;;;;;;;;1.62;82.49;100519.28;1660437;85;21056;-66
2022/02/16 08:05:56;;;;;;;;;;;;;;;1.67;82.25;100502.63;1662765;85;20397;-65
2022/02/16 08:08:23;;;;;;;15.93;10.77;;;;;;;1.71;82.56;100511.95;1661594;85;20110;-65
2022/02/16 08:10:51;;;;;;;15.97;11.47;;;;;;;1.71;82.16;100512.41;1662056;85;21524;-67
2022/02/16 08:13:20;;;;;;;14.33;11.30;;;;;;;1.68;81.69;100509.56;1697907;83;21397;-64
2022/02/16 08:15:48;;;;;;;18.33;12.40;;;;;;;1.72;81.67;100510.97;1703970;82;22517;-65
2022/02/16 08:18:15;;;;;;;22.23;14.53;;;;;;;1.65;81.84;100502.41;1714534;82;21171;-68
2022/02/16 08:20:42;;;;;;;19.40;12.88;;;;;;;1.58;82.17;100494.67;1708753;83;21567;-65
2022/02/16 08:23:22;;;;;;;22.30;14.40;;;;;;;1.57;82.45;100496.48;1683663;82;21064;-66
2022/02/16 08:25:49;;;;;;;20.52;14.55;;;;;;;1.63;82.41;100496.45;1684089;83;21853;-63
2022/02/16 08:28:17;;;;;;;22.87;15.23;;;;;;;1.70;82.37;100495.81;1677851;84;21577;-67
2022/02/16 08:30:43;;;;;;;26.45;17.37;;;;;;;1.80;82.11;100490.63;1688172;84;21027;-67
2022/02/16 08:33:14;;;;;;;21.57;15.27;;;;;;;1.79;81.97;100490.75;1688375;83;21152;-71
2022/02/16 08:35:45;;;;;;;21.00;14.93;;;;;;;1.78;82.06;100487.78;1660758;85;21604;-66
2022/02/16 08:38:11;;;;;;;21.27;14.70;;;;;;;1.78;81.35;100483.84;1673521;85;20988;-64
2022/02/16 08:40:38;;;;;;;21.15;14.28;;;;;;;1.79;81.15;100485.48;1665533;84;21122;-66
2022/02/16 08:43:05;;;;;;;21.52;15.58;;;;;;;1.80;80.93;100486.69;1671770;84;21071;-66
2022/02/16 08:45:32;;;;;;;22.40;14.43;;;;;;;1.81;80.90;100485.73;1663887;85;21078;-64
2022/02/16 08:47:58;;;;;;;21.87;15.98;;;;;;;1.82;80.80;100478.19;1666015;84;21151;-65
2022/02/16 08:50:24;;;;;;;24.57;15.20;;;;;;;1.84;80.60;100470.18;1670441;83;21082;-66
2022/02/16 08:52:49;;;;;;;20.48;14.80;;;;;;;1.86;80.44;100472.20;1675463;83;22435;-68
2022/02/16 08:55:16;;;;;;;20.20;14.40;;;;;;;1.82;80.59;100481.30;1678763;85;22200;-67
2022/02/16 08:57:42;;;;;;;24.77;18.12;;;;;;;1.80;80.67;100480.11;1663689;85;21149;-65
2022/02/16 09:00:11;;;;;;;19.37;15.32;;;;;;;1.87;80.39;100477.33;1665605;85;20987;-65
2022/02/16 09:02:38;;;;;;;23.63;17.17;;;;;;;1.90;80.14;100478.86;1652869;85;21066;-65
2022/02/16 09:05:06;;;;;;;22.45;16.82;;;;;;;1.91;80.09;100473.97;1662105;85;21058;-65
2022/02/16 09:07:35;;;;;;;20.33;15.83;;;;;;;1.90;80.21;100476.23;1660526;85;21086;-65
2022/02/16 09:10:06;;;;;;;22.23;15.67;;;;;;;1.90;80.09;100477.09;1654750;85;21107;-67
2022/02/16 09:12:35;;;;;;;21.30;16.23;;;;;;;1.91;79.96;100479.22;1641227;85;21239;-67
2022/02/16 09:15:03;;;;;;;25.60;17.13;;;;;;;1.98;79.97;100461.98;1651216;85;21540;-66
2022/02/16 09:17:31;;;;;;;22.17;15.83;;;;;;;2.05;79.74;100457.84;1641713;85;20971;-66
2022/02/16 09:19:59;;;;;;;21.97;15.57;;;;;;;2.11;79.28;100455.17;1642386;85;21368;-70
2022/02/16 09:22:26;;;;;;;19.93;15.33;;;;;;;1.97;79.34;100435.32;1652389;85;21019;-61
2022/02/16 09:24:54;;;;;;;23.17;15.97;;;;;;;2.14;79.30;100461.50;1652328;85;21042;-61
2022/02/16 09:27:20;;;;;;;19.20;15.60;;;;;;;2.18;79.03;100458.13;1645421;85;21308;-62
2022/02/16 09:29:47;;;;;;;23.90;16.27;;;;;;;2.27;78.95;100457.34;1649764;85;21026;-62
2022/02/16 09:32:14;;;;;;;21.53;16.20;;;;;;;2.38;78.62;100453.30;1650421;85;21077;-60
2022/02/16 09:34:40;;;;;;;;;;;;;;;2.43;78.10;100441.91;1662748;85;21516;-61
2022/02/16 09:37:08;;;;;;;26.63;17.03;;;;;;;2.45;77.88;100445.23;1645129;85;20262;-60
2022/02/16 09:39:34;;;;;;;21.43;15.70;;;;;;;2.33;78.02;100441.02;1648268;85;21114;-61
2022/02/16 09:42:01;;;;;;;19.80;14.50;;;;;;;2.37;78.31;100435.84;1648461;85;20979;-63
2022/02/16 09:44:36;;;;;;;;;;;;;;;2.43;77.77;100438.42;1630821;85;21066;-60
2022/02/16 09:47:05;;;;;;;25.80;17.17;;;;;;;2.44;77.76;100434.34;1636918;85;20136;-60
2022/02/16 09:49:34;;;;;;;21.70;16.10;;;;;;;2.40;77.90;100425.06;1645477;85;21100;-61
2022/02/16 09:52:01;;;;;;;21.10;15.93;;;;;;;2.42;77.68;100435.45;1644996;85;21327;-61
2022/02/16 09:54:27;;;;;;;21.63;15.77;;;;;;;2.43;77.61;100430.07;1645511;85;21104;-60
2022/02/16 09:56:54;;;;;;;22.47;15.87;;;;;;;2.44;77.47;100429.09;1657470;85;21033;-61
2022/02/16 09:59:20;;;;;;;27.85;16.85;;;;;;;2.46;77.35;100429.78;1658528;85;21196;-61
2022/02/16 10:02:01;;;;;;;26.75;16.12;;;;;;;2.50;77.34;100426.41;1660991;85;21105;-61
2022/02/16 10:04:30;;;;;;;25.13;16.77;;;;;;;2.55;77.31;100423.39;1656140;85;21018;-61
2022/02/16 10:06:57;;;;;;;25.13;16.70;;;;;;;2.59;77.18;100415.08;1654609;85;21006;-61
2022/02/16 10:09:32;;;;;;;27.60;18.00;;;;;;;2.55;77.28;100405.80;1649833;85;21103;-61
2022/02/16 10:12:06;;;;;;;22.57;16.77;;;;;;;2.53;77.50;100402.47;1653941;84;21145;-63
2022/02/16 10:14:37;;;;;;;26.47;17.67;;;;;;;2.55;77.44;100392.64;1636910;86;21006;-61
2022/02/16 10:17:27;;;;;;;28.17;19.67;;;;;;;2.65;77.01;100388.70;1657483;85;21070;-65
2022/02/16 10:20:00;;;;;;;31.43;20.27;;;;;;;2.70;76.76;100389.95;1648430;85;20974;-61
2022/02/16 10:22:45;;;;;;;24.67;18.80;;;;;;;2.75;76.67;100378.19;1660454;85;21010;-61
2022/02/16 10:25:21;;;;;;;26.43;18.67;;;;;;;2.77;76.70;100378.88;1657480;85;21496;-63
2022/02/16 10:28:17;;;;;;;28.47;17.50;;;;;;;2.79;76.32;100370.36;1649590;85;21097;-63
2022/02/16 10:31:07;;;;;;;23.30;17.67;;;;;;;2.81;75.89;100365.32;1653757;85;21148;-62
2022/02/16 10:33:45;;;;;;;25.40;17.67;;;;;;;2.82;75.54;100349.03;1657703;84;21055;-62
2022/02/16 10:36:19;;;;;;;23.97;17.40;;;;;;;2.77;75.45;100349.92;1654453;85;21060;-61
2022/02/16 10:39:06;;;;;;;26.77;19.67;;;;;;;2.71;75.81;100350.84;1656280;85;21028;-62
2022/02/16 10:41:43;;;;;;;26.05;17.52;;;;;;;2.70;76.00;100353.11;1661443;85;21520;-60
2022/02/16 10:44:29;;;;;;;25.72;17.87;;;;;;;2.74;75.84;100353.67;1658446;85;21171;-62
2022/02/16 10:47:08;;;;;;;23.43;18.43;;;;;;;2.75;75.77;100345.28;1650595;85;21028;-60
2022/02/16 10:49:37;;;;;;;26.73;19.70;;;;;;;2.80;75.76;100347.84;1660319;84;21065;-62
2022/02/16 10:52:18;;;;;;;28.87;20.40;;;;;;;2.79;75.89;100346.66;1654041;85;21064;-62
2022/02/16 10:54:57;;;;;;;26.83;19.17;;;;;;;2.78;76.11;100345.84;1643863;85;21062;-62
2022/02/16 10:57:23;;;;;;;;;;;;;;;2.73;76.21;100347.58;1615505;87;22226;-61
2022/02/16 10:59:49;;;;;;;25.70;17.77;;;;;;;2.73;76.43;100341.47;1648842;86;20419;-60
2022/02/16 11:02:21;;;;;;;25.25;17.60;;;;;;;2.68;76.58;100335.80;1641576;86;21516;-61
2022/02/16 11:04:48;;;;;;;21.97;17.57;;;;;;;2.69;76.59;100328.23;1641775;87;21012;-60
2022/02/16 11:07:22;;;;;;;23.60;16.93;;;;;;;2.73;76.53;100312.52;1627868;87;21559;-60
2022/02/16 11:09:54;;;;;;;24.03;17.27;;;;;;;2.72;76.50;100311.69;1634835;87;21047;-60
2022/02/16 11:12:21;;;;;;;22.53;17.40;;;;;;;2.62;76.50;100312.19;1655048;85;21567;-61
2022/02/16 11:14:49;;;;;;;31.43;19.53;;;;;;;2.60;76.72;100311.95;1664782;84;21038;-62
2022/02/16 11:17:15;;;;;;;29.87;19.13;;;;;;;2.63;76.87;100319.09;1709000;83;21612;-63
2022/02/16 11:19:42;;;;;;;25.40;16.90;;;;;;;2.63;76.92;100316.46;1705490;83;21517;-61
2022/02/16 11:22:13;;;;;;;28.23;19.20;;;;;;;2.66;77.01;100307.48;1695879;83;21513;-60
2022/02/16 11:24:49;;;;;;;24.67;18.30;;;;;;;2.64;77.14;100306.79;1665644;85;21516;-61
2022/02/16 11:27:38;;;;;;;27.00;18.43;;;;;;;2.63;77.26;100305.11;1682456;85;21069;-60